sensor_id;sensor_type;location;lat;lon;timestamp;pressure;altitude;pressure_sealevel;temperature;humidity
11648;BME280;5880;52.342;9.662;2023-05-11T00:01:36;100743.34;;;19.44;54.88
11648;BME280;5880;52.342;9.662;2023-05-11T00:04:02;100744.97;;;19.45;54.88
11648;BME280;5880;52.342;9.662;2023-05-11T00:06:27;100753.78;;;19.52;54.68
11648;BME280;5880;52.342;9.662;2023-05-11T00:08:53;100758.53;;;19.52;54.82
11648;BME280;5880;52.342;9.662;2023-05-11T00:11:19;100751.06;;;19.47;54.87
11648;BME280;5880;52.342;9.662;2023-05-11T00:13:45;100751.34;;;19.51;55.04
11648;BME280;5880;52.342;9.662;2023-05-11T00:16:11;100761.00;;;19.53;54.98
11648;BME280;5880;52.342;9.662;2023-05-11T00:18:37;100760.19;;;19.53;54.86
11648;BME280;5880;52.342;9.662;2023-05-11T00:21:03;100754.09;;;19.51;55.15
11648;BME280;5880;52.342;9.662;2023-05-11T00:23:28;100749.38;;;19.51;54.83
11648;BME280;5880;52.342;9.662;2023-05-11T00:25:56;100748.56;;;19.51;54.92
11648;BME280;5880;52.342;9.662;2023-05-11T00:28:21;100750.50;;;19.50;54.97
11648;BME280;5880;52.342;9.662;2023-05-11T00:30:47;100761.28;;;19.52;55.10
11648;BME280;5880;52.342;9.662;2023-05-11T00:33:13;100751.03;;;19.52;54.85
11648;BME280;5880;52.342;9.662;2023-05-11T00:35:39;100751.06;;;19.47;55.13
11648;BME280;5880;52.342;9.662;2023-05-11T00:38:05;100747.75;;;19.45;55.03
11648;BME280;5880;52.342;9.662;2023-05-11T00:40:31;100744.44;;;19.43;55.12
11648;BME280;5880;52.342;9.662;2023-05-11T00:42:57;100751.06;;;19.47;55.13
11648;BME280;5880;52.342;9.662;2023-05-11T00:45:23;100754.97;;;19.46;55.18
11648;BME280;5880;52.342;9.662;2023-05-11T00:47:49;100750.84;;;19.44;55.18
11648;BME280;5880;52.342;9.662;2023-05-11T00:50:16;100759.97;;;19.44;55.02
11648;BME280;5880;52.342;9.662;2023-05-11T00:52:44;100758.31;;;19.43;55.29
11648;BME280;5880;52.342;9.662;2023-05-11T00:55:12;100753.63;;;19.38;55.12
11648;BME280;5880;52.342;9.662;2023-05-11T00:57:38;100760.56;;;19.36;55.19
11648;BME280;5880;52.342;9.662;2023-05-11T01:00:05;100747.88;;;19.30;55.25
11648;BME280;5880;52.342;9.662;2023-05-11T01:02:32;100756.47;;;19.28;54.98
11648;BME280;5880;52.342;9.662;2023-05-11T01:04:59;100754.25;;;19.30;55.29
11648;BME280;5880;52.342;9.662;2023-05-11T01:07:36;100755.94;;;19.26;55.31
11648;BME280;5880;52.342;9.662;2023-05-11T01:10:20;100772.00;;;19.29;55.18
11648;BME280;5880;52.342;9.662;2023-05-11T01:15:52;100759.28;;;19.23;55.07
11648;BME280;5880;52.342;9.662;2023-05-11T01:18:34;100752.66;;;19.19;55.17
11648;BME280;5880;52.342;9.662;2023-05-11T01:21:04;100747.44;;;19.12;54.96
11648;BME280;5880;52.342;9.662;2023-05-11T01:24:07;100757.59;;;19.22;55.09
11648;BME280;5880;52.342;9.662;2023-05-11T01:33:10;100755.78;;;19.07;55.10
11648;BME280;5880;52.342;9.662;2023-05-11T01:35:44;100771.53;;;19.12;55.07
11648;BME280;5880;52.342;9.662;2023-05-11T01:38:18;100764.63;;;19.09;55.18
11648;BME280;5880;52.342;9.662;2023-05-11T01:40:53;100776.25;;;19.11;55.22
11648;BME280;5880;52.342;9.662;2023-05-11T01:43:24;100766.28;;;19.10;55.17
11648;BME280;5880;52.342;9.662;2023-05-11T01:45:56;100773.53;;;19.06;55.09
11648;BME280;5880;52.342;9.662;2023-05-11T01:48:28;100766.56;;;19.09;55.27
11648;BME280;5880;52.342;9.662;2023-05-11T01:51:00;100767.13;;;19.06;55.07
11648;BME280;5880;52.342;9.662;2023-05-11T01:53:32;100779.88;;;19.07;55.50
11648;BME280;5880;52.342;9.662;2023-05-11T01:56:01;100774.06;;;19.03;55.30
11648;BME280;5880;52.342;9.662;2023-05-11T01:58:29;100761.38;;;18.97;55.25
11648;BME280;5880;52.342;9.662;2023-05-11T02:00:56;100774.63;;;19.05;55.37
11648;BME280;5880;52.342;9.662;2023-05-11T02:03:23;100777.38;;;19.05;55.23
11648;BME280;5880;52.342;9.662;2023-05-11T02:05:51;100779.34;;;19.05;55.11
11648;BME280;5880;52.342;9.662;2023-05-11T02:08:20;100777.97;;;19.02;55.28
11648;BME280;5880;52.342;9.662;2023-05-11T02:10:48;100776.00;;;19.03;55.17
11648;BME280;5880;52.342;9.662;2023-05-11T02:13:17;100778.78;;;19.03;55.14
11648;BME280;5880;52.342;9.662;2023-05-11T02:15:45;100773.81;;;19.00;55.06
11648;BME280;5880;52.342;9.662;2023-05-11T02:18:14;100772.47;;;18.97;54.99
11648;BME280;5880;52.342;9.662;2023-05-11T02:20:44;100767.19;;;18.95;55.02
11648;BME280;5880;52.342;9.662;2023-05-11T02:23:10;100777.69;;;18.98;55.09
11648;BME280;5880;52.342;9.662;2023-05-11T02:25:40;100787.94;;;18.98;55.04
11648;BME280;5880;52.342;9.662;2023-05-11T02:28:07;100780.22;;;18.95;55.08
11648;BME280;5880;52.342;9.662;2023-05-11T02:30:44;100773.00;;;18.94;55.08
11648;BME280;5880;52.342;9.662;2023-05-11T02:33:18;100776.06;;;18.97;55.00
11648;BME280;5880;52.342;9.662;2023-05-11T02:35:46;100781.88;;;18.96;55.12
11648;BME280;5880;52.342;9.662;2023-05-11T02:38:17;100778.53;;;18.94;55.10
11648;BME280;5880;52.342;9.662;2023-05-11T02:40:48;100781.88;;;18.96;55.01
11648;BME280;5880;52.342;9.662;2023-05-11T02:43:24;100783.25;;;18.93;55.14
11648;BME280;5880;52.342;9.662;2023-05-11T02:45:59;100774.69;;;18.95;55.09
11648;BME280;5880;52.342;9.662;2023-05-11T02:48:39;100782.16;;;18.94;55.08
11648;BME280;5880;52.342;9.662;2023-05-11T02:51:09;100787.72;;;18.94;55.15
11648;BME280;5880;52.342;9.662;2023-05-11T02:53:39;100774.41;;;18.91;55.37
11648;BME280;5880;52.342;9.662;2023-05-11T02:56:07;100770.56;;;18.87;55.29
11648;BME280;5880;52.342;9.662;2023-05-11T02:58:33;100769.44;;;18.88;55.14
11648;BME280;5880;52.342;9.662;2023-05-11T03:00:59;100781.91;;;18.91;55.28
11648;BME280;5880;52.342;9.662;2023-05-11T03:03:26;100787.72;;;18.94;55.22
11648;BME280;5880;52.342;9.662;2023-05-11T03:05:52;100781.31;;;18.94;55.19
11648;BME280;5880;52.342;9.662;2023-05-11T03:08:18;100779.94;;;18.91;55.19
11648;BME280;5880;52.342;9.662;2023-05-11T03:10:45;100779.72;;;18.88;55.34
11648;BME280;5880;52.342;9.662;2023-05-11T03:13:11;100784.09;;;18.94;55.22
11648;BME280;5880;52.342;9.662;2023-05-11T03:15:38;100781.63;;;18.92;55.07
11648;BME280;5880;52.342;9.662;2023-05-11T03:18:06;100794.06;;;18.95;55.25
11648;BME280;5880;52.342;9.662;2023-05-11T03:20:36;100782.72;;;18.91;55.33
11648;BME280;5880;52.342;9.662;2023-05-11T03:23:05;100785.50;;;18.91;55.29
11648;BME280;5880;52.342;9.662;2023-05-11T03:25:31;100783.03;;;18.90;55.49
11648;BME280;5880;52.342;9.662;2023-05-11T03:27:59;100789.09;;;18.92;55.38
11648;BME280;5880;52.342;9.662;2023-05-11T03:30:27;100790.75;;;18.93;55.39
11648;BME280;5880;52.342;9.662;2023-05-11T03:32:53;100787.72;;;18.89;55.39
11648;BME280;5880;52.342;9.662;2023-05-11T03:35:21;100783.25;;;18.93;55.38
11648;BME280;5880;52.342;9.662;2023-05-11T03:37:51;100785.78;;;18.90;55.39
11648;BME280;5880;52.342;9.662;2023-05-11T03:40:19;100785.22;;;18.93;55.54
11648;BME280;5880;52.342;9.662;2023-05-11T03:42:47;100784.38;;;18.92;55.51
11648;BME280;5880;52.342;9.662;2023-05-11T03:45:18;100784.38;;;18.92;55.42
11648;BME280;5880;52.342;9.662;2023-05-11T03:47:47;100776.94;;;18.88;55.45
11648;BME280;5880;52.342;9.662;2023-05-11T03:50:15;100783.84;;;18.90;55.50
11648;BME280;5880;52.342;9.662;2023-05-11T03:52:42;100771.09;;;18.89;55.50
11648;BME280;5880;52.342;9.662;2023-05-11T03:55:09;100780.25;;;18.90;55.59
11648;BME280;5880;52.342;9.662;2023-05-11T03:57:35;100780.25;;;18.90;55.53
11648;BME280;5880;52.342;9.662;2023-05-11T04:00:01;100778.56;;;18.89;55.60
11648;BME280;5880;52.342;9.662;2023-05-11T04:02:27;100779.16;;;18.86;55.53
11648;BME280;5880;52.342;9.662;2023-05-11T04:04:52;100790.47;;;18.89;55.61
11648;BME280;5880;52.342;9.662;2023-05-11T04:07:20;100781.66;;;18.87;55.64
11648;BME280;5880;52.342;9.662;2023-05-11T04:09:45;100771.66;;;18.86;55.54
11648;BME280;5880;52.342;9.662;2023-05-11T04:12:11;100775.56;;;18.85;55.59
11648;BME280;5880;52.342;9.662;2023-05-11T04:14:37;100779.72;;;18.88;55.61
11648;BME280;5880;52.342;9.662;2023-05-11T04:17:02;100781.34;;;18.89;55.66
11648;BME280;5880;52.342;9.662;2023-05-11T04:19:28;100780.53;;;18.88;55.62
11648;BME280;5880;52.342;9.662;2023-05-11T04:21:54;100774.19;;;18.83;55.72
11648;BME280;5880;52.342;9.662;2023-05-11T04:24:20;100777.47;;;18.90;55.71
11648;BME280;5880;52.342;9.662;2023-05-11T04:26:45;100777.50;;;18.85;55.75
11648;BME280;5880;52.342;9.662;2023-05-11T04:29:11;100781.66;;;18.87;55.75
11648;BME280;5880;52.342;9.662;2023-05-11T04:31:36;100790.75;;;18.93;55.77
11648;BME280;5880;52.342;9.662;2023-05-11T04:34:07;100786.03;;;18.93;55.59
11648;BME280;5880;52.342;9.662;2023-05-11T04:36:32;100787.16;;;18.92;55.86
11648;BME280;5880;52.342;9.662;2023-05-11T04:38:58;100788.53;;;18.95;55.88
11648;BME280;5880;52.342;9.662;2023-05-11T04:41:24;100789.94;;;18.92;55.77
11648;BME280;5880;52.342;9.662;2023-05-11T04:43:50;100783.56;;;18.92;55.82
11648;BME280;5880;52.342;9.662;2023-05-11T04:46:16;100791.03;;;18.96;55.83
11648;BME280;5880;52.342;9.662;2023-05-11T04:48:41;100793.78;;;18.96;56.05
11648;BME280;5880;52.342;9.662;2023-05-11T04:51:07;100799.03;;;18.98;55.99
11648;BME280;5880;52.342;9.662;2023-05-11T04:53:32;100796.25;;;18.98;55.99
11648;BME280;5880;52.342;9.662;2023-05-11T04:55:58;100793.50;;;18.98;55.84
11648;BME280;5880;52.342;9.662;2023-05-11T04:58:24;100795.72;;;19.01;55.85
11648;BME280;5880;52.342;9.662;2023-05-11T05:00:49;100797.63;;;19.01;55.97
11648;BME280;5880;52.342;9.662;2023-05-11T05:03:15;100796.81;;;19.00;55.88
11648;BME280;5880;52.342;9.662;2023-05-11T05:05:41;100797.66;;;18.95;56.11
11648;BME280;5880;52.342;9.662;2023-05-11T05:08:06;100798.47;;;19.01;55.99
11648;BME280;5880;52.342;9.662;2023-05-11T05:10:32;100796.53;;;19.02;55.99
11648;BME280;5880;52.342;9.662;2023-05-11T05:12:58;100801.25;;;19.01;56.20
11648;BME280;5880;52.342;9.662;2023-05-11T05:15:24;100797.09;;;19.04;56.09
11648;BME280;5880;52.342;9.662;2023-05-11T05:17:49;100794.31;;;19.04;56.22
11648;BME280;5880;52.342;9.662;2023-05-11T05:20:15;100797.59;;;19.06;56.33
11648;BME280;5880;52.342;9.662;2023-05-11T05:22:40;100806.75;;;19.06;56.34
11648;BME280;5880;52.342;9.662;2023-05-11T05:25:07;100801.75;;;19.08;56.43
11648;BME280;5880;52.342;9.662;2023-05-11T05:27:33;100803.97;;;19.11;56.28
11648;BME280;5880;52.342;9.662;2023-05-11T05:29:58;100806.44;;;19.13;56.34
11648;BME280;5880;52.342;9.662;2023-05-11T05:32:24;100810.59;;;19.15;56.40
11648;BME280;5880;52.342;9.662;2023-05-11T05:34:50;100809.22;;;19.13;56.53
11648;BME280;5880;52.342;9.662;2023-05-11T05:37:16;100804.19;;;19.15;56.58
11648;BME280;5880;52.342;9.662;2023-05-11T05:39:41;100808.59;;;19.21;56.51
11648;BME280;5880;52.342;9.662;2023-05-11T05:42:07;100816.34;;;19.24;56.44
11648;BME280;5880;52.342;9.662;2023-05-11T05:44:33;100814.97;;;19.22;56.62
11648;BME280;5880;52.342;9.662;2023-05-11T05:46:58;100820.22;;;19.28;56.33
11648;BME280;5880;52.342;9.662;2023-05-11T05:49:24;100817.47;;;19.23;56.53
11648;BME280;5880;52.342;9.662;2023-05-11T05:51:50;100822.16;;;19.28;56.51
11648;BME280;5880;52.342;9.662;2023-05-11T05:54:17;100836.84;;;19.28;56.59
11648;BME280;5880;52.342;9.662;2023-05-11T05:56:43;100843.19;;;19.29;56.48
11648;BME280;5880;52.342;9.662;2023-05-11T05:59:09;100826.88;;;19.27;56.51
11648;BME280;5880;52.342;9.662;2023-05-11T06:01:35;100841.78;;;19.31;56.64
11648;BME280;5880;52.342;9.662;2023-05-11T06:04:05;100839.31;;;19.30;56.56
11648;BME280;5880;52.342;9.662;2023-05-11T06:06:31;100838.78;;;19.28;56.61
11648;BME280;5880;52.342;9.662;2023-05-11T06:08:56;100841.78;;;19.31;56.33
11648;BME280;5880;52.342;9.662;2023-05-11T06:11:22;100837.97;;;19.27;56.59
11648;BME280;5880;52.342;9.662;2023-05-11T06:13:48;100848.47;;;19.30;56.56
11648;BME280;5880;52.342;9.662;2023-05-11T06:16:13;100841.81;;;19.26;56.35
11648;BME280;5880;52.342;9.662;2023-05-11T06:18:39;100839.88;;;19.27;56.59
11648;BME280;5880;52.342;9.662;2023-05-11T06:21:05;100839.88;;;19.27;56.64
11648;BME280;5880;52.342;9.662;2023-05-11T06:23:30;100846.81;;;19.29;56.57
11648;BME280;5880;52.342;9.662;2023-05-11T06:25:56;100843.50;;;19.27;56.58
11648;BME280;5880;52.342;9.662;2023-05-11T06:28:22;100846.50;;;19.31;56.42
11648;BME280;5880;52.342;9.662;2023-05-11T06:30:49;100846.25;;;19.32;56.67
11648;BME280;5880;52.342;9.662;2023-05-11T06:33:14;100834.34;;;19.27;56.87
11648;BME280;5880;52.342;9.662;2023-05-11T06:35:40;100843.19;;;19.34;56.81
11648;BME280;5880;52.342;9.662;2023-05-11T06:38:06;100843.75;;;19.31;56.77
11648;BME280;5880;52.342;9.662;2023-05-11T06:40:31;100842.66;;;19.32;56.71
11648;BME280;5880;52.342;9.662;2023-05-11T06:42:57;100841.78;;;19.31;56.80
11648;BME280;5880;52.342;9.662;2023-05-11T06:45:24;100843.69;;;19.36;56.78
11648;BME280;5880;52.342;9.662;2023-05-11T06:47:50;100832.09;;;19.34;56.88
11648;BME280;5880;52.342;9.662;2023-05-11T06:50:15;100837.34;;;19.35;56.84
11648;BME280;5880;52.342;9.662;2023-05-11T06:52:41;100835.13;;;19.37;56.88
11648;BME280;5880;52.342;9.662;2023-05-11T06:55:11;100836.47;;;19.40;56.93
11648;BME280;5880;52.342;9.662;2023-05-11T06:57:37;100839.25;;;19.40;56.98
11648;BME280;5880;52.342;9.662;2023-05-11T07:00:04;100840.38;;;19.39;56.87
11648;BME280;5880;52.342;9.662;2023-05-11T07:02:30;100835.38;;;19.36;56.94
11648;BME280;5880;52.342;9.662;2023-05-11T07:04:58;100833.16;;;19.38;56.95
11648;BME280;5880;52.342;9.662;2023-05-11T07:07:24;100834.28;;;19.37;56.90
11648;BME280;5880;52.342;9.662;2023-05-11T07:09:49;100841.16;;;19.45;57.12
11648;BME280;5880;52.342;9.662;2023-05-11T07:12:15;100846.13;;;19.48;57.05
11648;BME280;5880;52.342;9.662;2023-05-11T07:14:41;100846.69;;;19.50;57.01
11648;BME280;5880;52.342;9.662;2023-05-11T07:17:07;100836.44;;;19.50;57.22
11648;BME280;5880;52.342;9.662;2023-05-11T07:19:32;100833.41;;;19.47;57.19
11648;BME280;5880;52.342;9.662;2023-05-11T07:21:58;100845.56;;;19.51;57.08
11648;BME280;5880;52.342;9.662;2023-05-11T07:24:25;100840.34;;;19.44;57.15
11648;BME280;5880;52.342;9.662;2023-05-11T07:26:51;100840.84;;;19.51;57.00
11648;BME280;5880;52.342;9.662;2023-05-11T07:29:16;100839.22;;;19.50;57.23
11648;BME280;5880;52.342;9.662;2023-05-11T07:31:42;100852.75;;;19.52;57.08
11648;BME280;5880;52.342;9.662;2023-05-11T07:34:08;100851.41;;;19.49;57.11
11648;BME280;5880;52.342;9.662;2023-05-11T07:36:34;100851.94;;;19.51;57.20
11648;BME280;5880;52.342;9.662;2023-05-11T07:38:59;100836.75;;;19.44;57.22
11648;BME280;5880;52.342;9.662;2023-05-11T07:41:26;100851.69;;;19.48;57.25
11648;BME280;5880;52.342;9.662;2023-05-11T07:43:53;100848.38;;;19.46;57.11
11648;BME280;5880;52.342;9.662;2023-05-11T07:46:19;100842.56;;;19.42;57.21
11648;BME280;5880;52.342;9.662;2023-05-11T07:48:45;100841.75;;;19.42;57.33
11648;BME280;5880;52.342;9.662;2023-05-11T07:51:11;100851.44;;;19.44;57.37
11648;BME280;5880;52.342;9.662;2023-05-11T07:53:37;100849.53;;;19.39;57.44
11648;BME280;5880;52.342;9.662;2023-05-11T07:56:03;100856.16;;;19.44;57.43
11648;BME280;5880;52.342;9.662;2023-05-11T07:58:29;100842.88;;;19.35;57.46
11648;BME280;5880;52.342;9.662;2023-05-11T08:00:56;100858.63;;;19.45;57.30
11648;BME280;5880;52.342;9.662;2023-05-11T08:03:21;100853.38;;;19.44;57.50
11648;BME280;5880;52.342;9.662;2023-05-11T08:05:47;100847.56;;;19.40;57.52
11648;BME280;5880;52.342;9.662;2023-05-11T08:08:13;100860.28;;;19.46;57.58
11648;BME280;5880;52.342;9.662;2023-05-11T08:10:40;100860.84;;;19.48;57.74
11648;BME280;5880;52.342;9.662;2023-05-11T08:13:06;100860.00;;;19.48;57.78
11648;BME280;5880;52.342;9.662;2023-05-11T08:15:32;100854.44;;;19.53;57.67
11648;BME280;5880;52.342;9.662;2023-05-11T08:17:58;100856.91;;;19.54;57.65
11648;BME280;5880;52.342;9.662;2023-05-11T08:20:25;100856.91;;;19.54;57.86
11648;BME280;5880;52.342;9.662;2023-05-11T08:22:52;100864.38;;;19.59;57.74
11648;BME280;5880;52.342;9.662;2023-05-11T08:25:18;100854.13;;;19.54;57.78
11648;BME280;5880;52.342;9.662;2023-05-11T08:27:44;100861.03;;;19.57;57.74
11648;BME280;5880;52.342;9.662;2023-05-11T08:30:10;100877.66;;;19.62;57.75
11648;BME280;5880;52.342;9.662;2023-05-11T08:32:36;100869.91;;;19.59;57.84
11648;BME280;5880;52.342;9.662;2023-05-11T08:35:02;100870.72;;;19.59;57.71
11648;BME280;5880;52.342;9.662;2023-05-11T08:37:29;100871.03;;;19.58;57.79
11648;BME280;5880;52.342;9.662;2023-05-11T08:39:55;100865.50;;;19.58;57.75
11648;BME280;5880;52.342;9.662;2023-05-11T08:42:24;100866.59;;;19.57;57.64
11648;BME280;5880;52.342;9.662;2023-05-11T08:44:54;100862.75;;;19.53;57.85
11648;BME280;5880;52.342;9.662;2023-05-11T08:47:22;100870.22;;;19.52;57.79
11648;BME280;5880;52.342;9.662;2023-05-11T08:49:50;100868.31;;;19.53;57.85
11648;BME280;5880;52.342;9.662;2023-05-11T08:52:17;100868.31;;;19.48;57.85
11648;BME280;5880;52.342;9.662;2023-05-11T08:54:45;100863.63;;;19.48;57.75
11648;BME280;5880;52.342;9.662;2023-05-11T08:57:13;100865.25;;;19.49;57.86
11648;BME280;5880;52.342;9.662;2023-05-11T08:59:43;100865.84;;;19.46;58.02
11648;BME280;5880;52.342;9.662;2023-05-11T09:02:16;100861.13;;;19.47;57.84
11648;BME280;5880;52.342;9.662;2023-05-11T09:04:43;100873.56;;;19.49;58.20
11648;BME280;5880;52.342;9.662;2023-05-11T09:07:10;100871.63;;;19.50;58.04
11648;BME280;5880;52.342;9.662;2023-05-11T09:09:39;100875.25;;;19.50;58.01
11648;BME280;5880;52.342;9.662;2023-05-11T09:12:08;100872.47;;;19.50;58.04
11648;BME280;5880;52.342;9.662;2023-05-11T09:14:34;100869.97;;;19.49;58.19
11648;BME280;5880;52.342;9.662;2023-05-11T09:17:01;100871.94;;;19.48;58.11
11648;BME280;5880;52.342;9.662;2023-05-11T09:19:29;100871.63;;;19.50;58.05
11648;BME280;5880;52.342;9.662;2023-05-11T09:21:55;100872.47;;;19.50;58.32
11648;BME280;5880;52.342;9.662;2023-05-11T09:24:20;100853.94;;;19.46;58.32
11648;BME280;5880;52.342;9.662;2023-05-11T09:26:47;100865.53;;;19.48;58.21
11648;BME280;5880;52.342;9.662;2023-05-11T09:29:13;100868.84;;;19.50;58.45
11648;BME280;5880;52.342;9.662;2023-05-11T09:31:44;100876.03;;;19.56;58.49
11648;BME280;5880;52.342;9.662;2023-05-11T09:34:21;100873.53;;;19.54;58.27
11648;BME280;5880;52.342;9.662;2023-05-11T09:36:53;100877.13;;;19.55;58.34
11648;BME280;5880;52.342;9.662;2023-05-11T09:39:32;100869.66;;;19.55;58.37
11648;BME280;5880;52.342;9.662;2023-05-11T09:42:14;100874.66;;;19.53;58.21
11648;BME280;5880;52.342;9.662;2023-05-11T09:44:46;100865.53;;;19.53;58.29
11648;BME280;5880;52.342;9.662;2023-05-11T09:47:19;100874.94;;;19.52;58.45
11648;BME280;5880;52.342;9.662;2023-05-11T09:49:52;100862.47;;;19.49;58.57
11648;BME280;5880;52.342;9.662;2023-05-11T09:52:20;100877.13;;;19.55;58.76
11648;BME280;5880;52.342;9.662;2023-05-11T09:54:50;100868.31;;;19.53;58.56
11648;BME280;5880;52.342;9.662;2023-05-11T09:57:30;100871.84;;;19.58;58.53
11648;BME280;5880;52.342;9.662;2023-05-11T09:59:58;100876.03;;;19.56;58.56
11648;BME280;5880;52.342;9.662;2023-05-11T10:02:30;100866.34;;;19.53;58.32
11648;BME280;5880;52.342;9.662;2023-05-11T10:04:58;100871.31;;;19.56;58.55
11648;BME280;5880;52.342;9.662;2023-05-11T10:07:34;100859.41;;;19.56;58.37
11648;BME280;5880;52.342;9.662;2023-05-11T10:10:08;100863.00;;;19.56;58.35
11648;BME280;5880;52.342;9.662;2023-05-11T10:12:35;100867.44;;;19.57;58.74
11648;BME280;5880;52.342;9.662;2023-05-11T10:15:10;100865.72;;;19.61;58.69
11648;BME280;5880;52.342;9.662;2023-05-11T10:17:36;100856.34;;;19.57;58.54
11648;BME280;5880;52.342;9.662;2023-05-11T10:20:05;100851.31;;;19.59;58.45
11648;BME280;5880;52.342;9.662;2023-05-11T10:22:32;100844.72;;;19.55;58.66
11648;BME280;5880;52.342;9.662;2023-05-11T10:24:58;100858.25;;;19.62;58.79
11648;BME280;5880;52.342;9.662;2023-05-11T10:27:26;100858.78;;;19.64;58.61
11648;BME280;5880;52.342;9.662;2023-05-11T10:29:52;100845.50;;;19.61;58.88
11648;BME280;5880;52.342;9.662;2023-05-11T10:32:19;100852.13;;;19.65;58.68
11648;BME280;5880;52.342;9.662;2023-05-11T10:34:46;100843.28;;;19.63;58.73
11648;BME280;5880;52.342;9.662;2023-05-11T10:37:14;100847.69;;;19.64;58.65
11648;BME280;5880;52.342;9.662;2023-05-11T10:39:43;100854.09;;;19.65;58.44
11648;BME280;5880;52.342;9.662;2023-05-11T10:42:52;100856.31;;;19.63;58.49
11648;BME280;5880;52.342;9.662;2023-05-11T10:45:30;100848.03;;;19.57;58.42
11648;BME280;5880;52.342;9.662;2023-05-11T10:51:54;100861.63;;;19.54;58.40
11648;BME280;5880;52.342;9.662;2023-05-11T10:54:40;100853.31;;;19.54;58.42
11648;BME280;5880;52.342;9.662;2023-05-11T10:57:38;100855.53;;;19.52;58.33
11648;BME280;5880;52.342;9.662;2023-05-11T11:01:25;100850.63;;;19.44;58.24
11648;BME280;5880;52.342;9.662;2023-05-11T11:04:01;100854.75;;;19.46;58.45
11648;BME280;5880;52.342;9.662;2023-05-11T11:06:31;100854.44;;;19.48;58.62
11648;BME280;5880;52.342;9.662;2023-05-11T11:09:03;100853.63;;;19.47;58.45
11648;BME280;5880;52.342;9.662;2023-05-11T11:11:33;100839.00;;;19.36;58.56
11648;BME280;5880;52.342;9.662;2023-05-11T11:14:01;100850.03;;;19.47;58.57
11648;BME280;5880;52.342;9.662;2023-05-11T11:16:33;100854.16;;;19.49;58.67
11648;BME280;5880;52.342;9.662;2023-05-11T11:21:57;100856.94;;;19.49;58.88
11648;BME280;5880;52.342;9.662;2023-05-11T11:27:02;100854.72;;;19.51;58.94
11648;BME280;5880;52.342;9.662;2023-05-11T11:29:29;100845.84;;;19.49;58.81
11648;BME280;5880;52.342;9.662;2023-05-11T11:34:48;100856.66;;;19.51;58.71
11648;BME280;5880;52.342;9.662;2023-05-11T11:37:16;100844.50;;;19.47;58.93
11648;BME280;5880;52.342;9.662;2023-05-11T11:42:10;100856.13;;;19.49;59.09
11648;BME280;5880;52.342;9.662;2023-05-11T11:44:38;100843.09;;;19.49;59.30
11648;BME280;5880;52.342;9.662;2023-05-11T11:47:13;100850.81;;;19.52;59.15
11648;BME280;5880;52.342;9.662;2023-05-11T11:49:42;100853.66;;;19.42;59.18
11648;BME280;5880;52.342;9.662;2023-05-11T11:52:31;100848.97;;;19.37;59.34
11648;BME280;5880;52.342;9.662;2023-05-11T11:54:59;100841.00;;;19.26;59.19
11648;BME280;5880;52.342;9.662;2023-05-11T12:00:06;100867.28;;;19.33;59.31
11648;BME280;5880;52.342;9.662;2023-05-11T12:02:41;100862.91;;;19.27;59.06
11648;BME280;5880;52.342;9.662;2023-05-11T12:05:18;100862.91;;;19.27;59.08
11648;BME280;5880;52.342;9.662;2023-05-11T12:07:49;100852.97;;;19.16;59.15
11648;BME280;5880;52.342;9.662;2023-05-11T12:10:21;100863.22;;;19.15;59.28
11648;BME280;5880;52.342;9.662;2023-05-11T12:12:49;100863.22;;;19.15;59.28
11648;BME280;5880;52.342;9.662;2023-05-11T12:15:30;100853.56;;;19.13;59.26
11648;BME280;5880;52.342;9.662;2023-05-11T12:17:59;100859.91;;;19.13;59.28
11648;BME280;5880;52.342;9.662;2023-05-11T12:20:27;100851.06;;;19.06;59.38
11648;BME280;5880;52.342;9.662;2023-05-11T12:22:53;100857.69;;;19.10;59.30
11648;BME280;5880;52.342;9.662;2023-05-11T12:25:19;100852.41;;;19.14;59.55
11648;BME280;5880;52.342;9.662;2023-05-11T12:27:52;100851.84;;;19.17;59.55
11648;BME280;5880;52.342;9.662;2023-05-11T12:30:30;100851.59;;;19.13;59.52
11648;BME280;5880;52.342;9.662;2023-05-11T12:32:57;100849.34;;;19.21;59.58
11648;BME280;5880;52.342;9.662;2023-05-11T12:35:28;100847.13;;;19.23;59.80
11648;BME280;5880;52.342;9.662;2023-05-11T12:37:55;100849.31;;;19.26;59.83
11648;BME280;5880;52.342;9.662;2023-05-11T12:40:21;100846.53;;;19.26;59.93
11648;BME280;5880;52.342;9.662;2023-05-11T12:42:58;100845.97;;;19.34;59.83
11648;BME280;5880;52.342;9.662;2023-05-11T12:45:26;100837.66;;;19.34;60.07
11648;BME280;5880;52.342;9.662;2023-05-11T12:47:54;100838.72;;;19.38;59.89
11648;BME280;5880;52.342;9.662;2023-05-11T12:50:21;100837.03;;;19.42;60.15
11648;BME280;5880;52.342;9.662;2023-05-11T12:52:47;100825.41;;;19.40;60.18
11648;BME280;5880;52.342;9.662;2023-05-11T12:55:28;100834.50;;;19.51;59.86
11648;BME280;5880;52.342;9.662;2023-05-11T12:58:16;100829.22;;;19.49;60.24
11648;BME280;5880;52.342;9.662;2023-05-11T13:03:24;100830.31;;;19.53;60.26
11648;BME280;5880;52.342;9.662;2023-05-11T13:05:51;100838.31;;;19.60;60.31
11648;BME280;5880;52.342;9.662;2023-05-11T13:08:19;100830.56;;;19.57;60.14
11648;BME280;5880;52.342;9.662;2023-05-11T13:10:45;100824.44;;;19.60;60.13
11648;BME280;5880;52.342;9.662;2023-05-11T13:13:27;100838.28;;;19.65;60.10
11648;BME280;5880;52.342;9.662;2023-05-11T13:15:54;100836.59;;;19.64;60.27
11648;BME280;5880;52.342;9.662;2023-05-11T13:18:20;100833.81;;;19.64;60.31
11648;BME280;5880;52.342;9.662;2023-05-11T13:20:47;100817.19;;;19.64;60.38
11648;BME280;5880;52.342;9.662;2023-05-11T13:23:14;100818.84;;;19.70;60.80
11648;BME280;5880;52.342;9.662;2023-05-11T13:28:18;100815.72;;;19.82;60.86
11648;BME280;5880;52.342;9.662;2023-05-11T13:30:45;100815.38;;;19.89;61.05
11648;BME280;5880;52.342;9.662;2023-05-11T13:33:11;100811.47;;;19.95;60.98
11648;BME280;5880;52.342;9.662;2023-05-11T13:35:40;100809.44;;;20.00;61.06
11648;BME280;5880;52.342;9.662;2023-05-11T13:38:07;100813.31;;;20.05;61.18
11648;BME280;5880;52.342;9.662;2023-05-11T13:40:34;100806.09;;;20.03;61.00